Versailles, IN

6:40 AM EDT on March 23, 2017 (GMT -0400)
RCEMA - Versailles | | Change Station
Active Advisory: Freeze Warning Active Notice: Public Information Statement

Elev 955 ft 39.07 °N, 85.25 °W | Updated 4 minutes ago

Partly Cloudy
Partly Cloudy
25.2 °F
Feels Like 18 °F
N
6.0
Wind Variable Wind from ENE
Gusts 7.0 mph

Today
High -- | Low -- °F
--% Chance of Precip.
Yesterday
High -- | Low -- °F
Precip. -- in
Pressure 30.44 in
Visibility 10.0 miles
Clouds Scattered Clouds 25000 ft
Windchill 18 °F
Dew Point 17 °F
Humidity 72%
Rainfall 0.00 in
Snow Depth Not available.
7:39 AM 7:56 PM
Waning Crescent, 24% visible
METAR KCVG 230952Z 08009KT 10SM SCT250 M02/M08 A3042 RMK AO2 SLP308 T10171083
Pressure 30.44 in
Visibility 10.0 miles
Clouds Scattered Clouds 25000 ft
Windchill 18 °F
Dew Point 17 °F
Humidity 72%
Rainfall 0.00 in
Snow Depth Not available.
7:39 AM 7:56 PM
Waning Crescent, 24% visible
METAR KCVG 230952Z 08009KT 10SM SCT250 M02/M08 A3042 RMK AO2 SLP308 T10171083

Get Your Daily Forecast Email!

Thanks for signing up!

Be on the lookout for a verification email in your inbox.

You'll start receiving severe weather alerts in your inbox..

×

10-Day Weather Forecast

Almanac

Astronomy

Mar. 23, 2017 Rise Set
Actual Time
Civil Twilight
Nautical Twilight
Astronomical Twilight
Moon
Length of Visible Light
Length of Day
Tomorrow will be .
, % of the Moon is Illuminated

Today's Extremes

State Highs State Lows

Community

WunderPhotos

Upload Photos

1,962,540 photos uploaded!

WunderBlog® & News

Nearby

Air Quality

  Air Quality AQ Index Pollutant
Not available.

Snow Depth

Station Depth Elevation

Earthquake Activity

City Distance Mag. Time & Date
Minimum magnitude displayed is 2.5.

Earthquake Activity

City Distance Mag. Time & Date
Minimum magnitude displayed is 2.5.

Coastal Water Temperatures

Place Temperature

Stations

Nearby Weather Stations

Station Location Temp. Windchill Dew Point Humidity Wind Precip. Elev Updated Type
                   

Watches & Warnings

Freeze Warning
Issued: 3:30 AM EDT Mar. 23, 2017 – National Weather Service

... Freeze warning remains in effect until 10 am EDT this
morning...

* temperatures... temperatures will fall into the mid and upper 20s
by sunrise.

* Impacts... any trees and flowers that have already started
blooming will be damaged or killed.

Precautionary/preparedness actions...

A freeze warning means sub-freezing temperatures are imminent or
highly likely. These conditions will kill crops and other
sensitive vegetation.